sensor_id;sensor_type;location;lat;lon;timestamp;P1;durP1;ratioP1;P2;durP2;ratioP2
33094;SDS011;19459;53.044;8.910;2023-08-31T00:02:17;15.27;;;7.82;;
33094;SDS011;19459;53.044;8.910;2023-08-31T00:04:44;10.50;;;6.82;;
33094;SDS011;19459;53.044;8.910;2023-08-31T00:07:10;13.90;;;6.93;;
33094;SDS011;19459;53.044;8.910;2023-08-31T00:09:35;8.65;;;6.25;;
33094;SDS011;19459;53.044;8.910;2023-08-31T00:12:02;11.63;;;7.03;;
33094;SDS011;19459;53.044;8.910;2023-08-31T00:14:28;7.55;;;5.68;;
33094;SDS011;19459;53.044;8.910;2023-08-31T00:16:54;9.98;;;5.82;;
33094;SDS011;19459;53.044;8.910;2023-08-31T00:19:22;11.00;;;6.28;;
33094;SDS011;19459;53.044;8.910;2023-08-31T00:21:48;8.90;;;6.15;;
33094;SDS011;19459;53.044;8.910;2023-08-31T00:24:14;9.30;;;5.72;;
33094;SDS011;19459;53.044;8.910;2023-08-31T00:26:40;8.98;;;5.00;;
33094;SDS011;19459;53.044;8.910;2023-08-31T00:29:08;10.20;;;5.72;;
33094;SDS011;19459;53.044;8.910;2023-08-31T00:31:36;10.50;;;5.15;;
33094;SDS011;19459;53.044;8.910;2023-08-31T00:34:02;14.73;;;5.45;;
33094;SDS011;19459;53.044;8.910;2023-08-31T00:36:32;7.43;;;4.90;;
33094;SDS011;19459;53.044;8.910;2023-08-31T00:39:02;12.48;;;5.75;;
33094;SDS011;19459;53.044;8.910;2023-08-31T00:41:35;11.80;;;5.88;;
33094;SDS011;19459;53.044;8.910;2023-08-31T00:44:01;12.48;;;5.60;;
33094;SDS011;19459;53.044;8.910;2023-08-31T00:46:29;9.07;;;5.55;;
33094;SDS011;19459;53.044;8.910;2023-08-31T00:48:59;9.38;;;5.22;;
33094;SDS011;19459;53.044;8.910;2023-08-31T00:51:25;10.85;;;4.93;;
33094;SDS011;19459;53.044;8.910;2023-08-31T00:53:52;8.48;;;5.20;;
33094;SDS011;19459;53.044;8.910;2023-08-31T00:56:23;8.38;;;4.32;;
33094;SDS011;19459;53.044;8.910;2023-08-31T00:58:50;9.70;;;5.50;;
33094;SDS011;19459;53.044;8.910;2023-08-31T01:13:00;9.23;;;5.13;;
33094;SDS011;19459;53.044;8.910;2023-08-31T01:15:50;10.15;;;5.55;;
33094;SDS011;19459;53.044;8.910;2023-08-31T01:18:21;8.10;;;4.72;;
33094;SDS011;19459;53.044;8.910;2023-08-31T01:21:08;10.48;;;4.97;;
33094;SDS011;19459;53.044;8.910;2023-08-31T01:24:03;10.93;;;4.63;;
33094;SDS011;19459;53.044;8.910;2023-08-31T01:26:31;10.25;;;5.05;;
33094;SDS011;19459;53.044;8.910;2023-08-31T01:28:57;10.80;;;5.35;;
33094;SDS011;19459;53.044;8.910;2023-08-31T01:31:24;13.73;;;5.03;;
33094;SDS011;19459;53.044;8.910;2023-08-31T01:33:50;8.57;;;4.13;;
33094;SDS011;19459;53.044;8.910;2023-08-31T01:36:29;9.85;;;4.45;;
33094;SDS011;19459;53.044;8.910;2023-08-31T01:39:01;11.25;;;4.80;;
33094;SDS011;19459;53.044;8.910;2023-08-31T01:41:48;9.52;;;4.90;;
33094;SDS011;19459;53.044;8.910;2023-08-31T01:44:21;8.15;;;5.00;;
33094;SDS011;19459;53.044;8.910;2023-08-31T01:46:50;8.30;;;4.82;;
33094;SDS011;19459;53.044;8.910;2023-08-31T01:49:20;9.90;;;5.18;;
33094;SDS011;19459;53.044;8.910;2023-08-31T01:51:46;7.53;;;4.57;;
33094;SDS011;19459;53.044;8.910;2023-08-31T01:54:13;5.93;;;4.90;;
33094;SDS011;19459;53.044;8.910;2023-08-31T01:56:38;7.90;;;5.43;;
33094;SDS011;19459;53.044;8.910;2023-08-31T01:59:04;17.73;;;6.03;;
33094;SDS011;19459;53.044;8.910;2023-08-31T02:01:32;12.02;;;6.47;;
33094;SDS011;19459;53.044;8.910;2023-08-31T02:03:58;17.88;;;7.07;;
33094;SDS011;19459;53.044;8.910;2023-08-31T02:06:24;15.60;;;7.43;;
33094;SDS011;19459;53.044;8.910;2023-08-31T02:08:49;9.77;;;6.60;;
33094;SDS011;19459;53.044;8.910;2023-08-31T02:11:15;13.60;;;7.45;;
33094;SDS011;19459;53.044;8.910;2023-08-31T02:13:41;17.80;;;7.18;;
33094;SDS011;19459;53.044;8.910;2023-08-31T02:16:07;15.95;;;6.85;;
33094;SDS011;19459;53.044;8.910;2023-08-31T02:18:33;13.02;;;6.78;;
33094;SDS011;19459;53.044;8.910;2023-08-31T02:20:58;15.98;;;8.13;;
33094;SDS011;19459;53.044;8.910;2023-08-31T02:23:24;18.73;;;7.78;;
33094;SDS011;19459;53.044;8.910;2023-08-31T02:25:50;13.32;;;8.18;;
33094;SDS011;19459;53.044;8.910;2023-08-31T02:28:16;12.48;;;7.57;;
33094;SDS011;19459;53.044;8.910;2023-08-31T02:30:43;20.25;;;8.50;;
33094;SDS011;19459;53.044;8.910;2023-08-31T02:33:10;14.95;;;9.07;;
33094;SDS011;19459;53.044;8.910;2023-08-31T02:35:36;14.27;;;8.15;;
33094;SDS011;19459;53.044;8.910;2023-08-31T02:38:02;20.80;;;9.48;;
33094;SDS011;19459;53.044;8.910;2023-08-31T02:40:27;21.70;;;9.00;;
33094;SDS011;19459;53.044;8.910;2023-08-31T02:42:53;19.38;;;7.97;;
33094;SDS011;19459;53.044;8.910;2023-08-31T02:45:19;11.98;;;8.10;;
33094;SDS011;19459;53.044;8.910;2023-08-31T02:47:45;17.33;;;8.00;;
33094;SDS011;19459;53.044;8.910;2023-08-31T02:50:11;17.35;;;8.32;;
33094;SDS011;19459;53.044;8.910;2023-08-31T02:52:37;21.33;;;8.70;;
33094;SDS011;19459;53.044;8.910;2023-08-31T02:55:02;13.32;;;7.45;;
33094;SDS011;19459;53.044;8.910;2023-08-31T02:57:29;15.00;;;9.68;;
33094;SDS011;19459;53.044;8.910;2023-08-31T02:59:55;13.90;;;7.55;;
33094;SDS011;19459;53.044;8.910;2023-08-31T03:02:21;20.60;;;8.38;;
33094;SDS011;19459;53.044;8.910;2023-08-31T03:04:47;11.98;;;7.88;;
33094;SDS011;19459;53.044;8.910;2023-08-31T03:07:13;12.50;;;7.30;;
33094;SDS011;19459;53.044;8.910;2023-08-31T03:09:40;11.73;;;7.85;;
33094;SDS011;19459;53.044;8.910;2023-08-31T03:12:06;14.43;;;7.72;;
33094;SDS011;19459;53.044;8.910;2023-08-31T03:14:32;15.40;;;6.47;;
33094;SDS011;19459;53.044;8.910;2023-08-31T03:16:57;15.68;;;7.90;;
33094;SDS011;19459;53.044;8.910;2023-08-31T03:19:24;11.70;;;6.93;;
33094;SDS011;19459;53.044;8.910;2023-08-31T03:21:49;14.40;;;7.35;;
33094;SDS011;19459;53.044;8.910;2023-08-31T03:24:15;15.40;;;7.57;;
33094;SDS011;19459;53.044;8.910;2023-08-31T03:26:41;11.43;;;7.05;;
33094;SDS011;19459;53.044;8.910;2023-08-31T03:29:07;13.00;;;7.00;;
33094;SDS011;19459;53.044;8.910;2023-08-31T03:31:33;12.30;;;7.45;;
33094;SDS011;19459;53.044;8.910;2023-08-31T03:33:58;13.50;;;9.05;;
33094;SDS011;19459;53.044;8.910;2023-08-31T03:36:24;13.43;;;7.75;;
33094;SDS011;19459;53.044;8.910;2023-08-31T03:38:50;14.98;;;7.85;;
33094;SDS011;19459;53.044;8.910;2023-08-31T03:41:16;18.92;;;8.02;;
33094;SDS011;19459;53.044;8.910;2023-08-31T03:43:41;15.45;;;7.95;;
33094;SDS011;19459;53.044;8.910;2023-08-31T03:46:07;17.98;;;7.90;;
33094;SDS011;19459;53.044;8.910;2023-08-31T03:48:33;18.02;;;8.65;;
33094;SDS011;19459;53.044;8.910;2023-08-31T03:50:59;14.68;;;8.05;;
33094;SDS011;19459;53.044;8.910;2023-08-31T03:53:24;14.18;;;8.23;;
33094;SDS011;19459;53.044;8.910;2023-08-31T03:55:50;17.27;;;8.30;;
33094;SDS011;19459;53.044;8.910;2023-08-31T03:58:16;15.70;;;8.52;;
33094;SDS011;19459;53.044;8.910;2023-08-31T04:00:42;13.23;;;8.57;;
33094;SDS011;19459;53.044;8.910;2023-08-31T04:03:08;15.20;;;7.63;;
33094;SDS011;19459;53.044;8.910;2023-08-31T04:05:34;20.85;;;9.73;;
33094;SDS011;19459;53.044;8.910;2023-08-31T04:08:00;15.80;;;8.05;;
33094;SDS011;19459;53.044;8.910;2023-08-31T04:10:27;14.40;;;8.50;;
33094;SDS011;19459;53.044;8.910;2023-08-31T04:12:54;17.63;;;9.13;;
33094;SDS011;19459;53.044;8.910;2023-08-31T04:15:21;19.52;;;10.35;;
33094;SDS011;19459;53.044;8.910;2023-08-31T04:17:46;20.42;;;9.63;;
33094;SDS011;19459;53.044;8.910;2023-08-31T04:20:14;14.18;;;8.40;;
33094;SDS011;19459;53.044;8.910;2023-08-31T04:22:40;20.13;;;10.25;;
33094;SDS011;19459;53.044;8.910;2023-08-31T04:25:06;17.50;;;9.32;;
33094;SDS011;19459;53.044;8.910;2023-08-31T04:27:32;11.90;;;8.45;;
33094;SDS011;19459;53.044;8.910;2023-08-31T04:29:59;17.80;;;10.43;;
33094;SDS011;19459;53.044;8.910;2023-08-31T04:32:26;25.23;;;9.90;;
33094;SDS011;19459;53.044;8.910;2023-08-31T04:34:52;20.35;;;11.00;;
33094;SDS011;19459;53.044;8.910;2023-08-31T04:37:18;19.17;;;9.20;;
33094;SDS011;19459;53.044;8.910;2023-08-31T04:39:44;18.08;;;10.15;;
33094;SDS011;19459;53.044;8.910;2023-08-31T04:42:10;22.25;;;9.82;;
33094;SDS011;19459;53.044;8.910;2023-08-31T04:44:35;11.27;;;8.10;;
33094;SDS011;19459;53.044;8.910;2023-08-31T04:47:01;21.33;;;9.80;;
33094;SDS011;19459;53.044;8.910;2023-08-31T04:49:27;19.63;;;10.32;;
33094;SDS011;19459;53.044;8.910;2023-08-31T04:51:53;19.70;;;10.77;;
33094;SDS011;19459;53.044;8.910;2023-08-31T04:54:18;20.00;;;10.00;;
33094;SDS011;19459;53.044;8.910;2023-08-31T04:56:44;19.35;;;10.90;;
33094;SDS011;19459;53.044;8.910;2023-08-31T04:59:10;25.90;;;10.73;;
33094;SDS011;19459;53.044;8.910;2023-08-31T05:01:36;20.40;;;9.50;;
33094;SDS011;19459;53.044;8.910;2023-08-31T05:04:02;20.40;;;10.07;;
33094;SDS011;19459;53.044;8.910;2023-08-31T05:06:28;17.27;;;9.65;;
33094;SDS011;19459;53.044;8.910;2023-08-31T05:08:54;22.05;;;10.57;;
33094;SDS011;19459;53.044;8.910;2023-08-31T05:11:20;22.73;;;10.45;;
33094;SDS011;19459;53.044;8.910;2023-08-31T05:13:46;23.85;;;10.27;;
33094;SDS011;19459;53.044;8.910;2023-08-31T05:16:13;24.08;;;11.32;;
33094;SDS011;19459;53.044;8.910;2023-08-31T05:18:39;25.73;;;11.23;;
33094;SDS011;19459;53.044;8.910;2023-08-31T05:21:05;21.58;;;11.00;;
33094;SDS011;19459;53.044;8.910;2023-08-31T05:23:31;19.27;;;10.57;;
33094;SDS011;19459;53.044;8.910;2023-08-31T05:25:57;21.15;;;11.65;;
33094;SDS011;19459;53.044;8.910;2023-08-31T05:28:23;24.02;;;11.63;;
33094;SDS011;19459;53.044;8.910;2023-08-31T05:30:50;18.60;;;10.90;;
33094;SDS011;19459;53.044;8.910;2023-08-31T05:33:17;19.38;;;10.90;;
33094;SDS011;19459;53.044;8.910;2023-08-31T05:35:44;19.98;;;12.25;;
33094;SDS011;19459;53.044;8.910;2023-08-31T05:38:10;18.20;;;11.35;;
33094;SDS011;19459;53.044;8.910;2023-08-31T05:40:37;22.70;;;11.57;;
33094;SDS011;19459;53.044;8.910;2023-08-31T05:43:03;19.10;;;12.15;;
33094;SDS011;19459;53.044;8.910;2023-08-31T05:45:32;23.48;;;11.80;;
33094;SDS011;19459;53.044;8.910;2023-08-31T05:47:59;21.90;;;12.45;;
33094;SDS011;19459;53.044;8.910;2023-08-31T05:50:25;18.40;;;11.93;;
33094;SDS011;19459;53.044;8.910;2023-08-31T05:52:52;19.08;;;10.82;;
33094;SDS011;19459;53.044;8.910;2023-08-31T05:55:19;20.05;;;11.52;;
33094;SDS011;19459;53.044;8.910;2023-08-31T05:57:45;25.23;;;11.43;;
33094;SDS011;19459;53.044;8.910;2023-08-31T06:00:11;20.40;;;11.82;;
33094;SDS011;19459;53.044;8.910;2023-08-31T06:02:38;22.30;;;11.85;;
33094;SDS011;19459;53.044;8.910;2023-08-31T06:05:04;22.83;;;11.45;;
33094;SDS011;19459;53.044;8.910;2023-08-31T06:07:30;21.67;;;10.65;;
33094;SDS011;19459;53.044;8.910;2023-08-31T06:09:56;20.80;;;10.98;;
33094;SDS011;19459;53.044;8.910;2023-08-31T06:12:22;21.08;;;10.88;;
33094;SDS011;19459;53.044;8.910;2023-08-31T06:14:48;20.20;;;10.88;;
33094;SDS011;19459;53.044;8.910;2023-08-31T06:17:14;19.85;;;11.40;;
33094;SDS011;19459;53.044;8.910;2023-08-31T06:19:41;23.95;;;10.73;;
33094;SDS011;19459;53.044;8.910;2023-08-31T06:22:07;18.42;;;10.80;;
33094;SDS011;19459;53.044;8.910;2023-08-31T06:24:33;19.83;;;11.43;;
33094;SDS011;19459;53.044;8.910;2023-08-31T06:27:00;16.80;;;10.73;;
33094;SDS011;19459;53.044;8.910;2023-08-31T06:29:26;22.25;;;10.98;;
33094;SDS011;19459;53.044;8.910;2023-08-31T06:31:52;18.02;;;11.05;;
33094;SDS011;19459;53.044;8.910;2023-08-31T06:34:17;20.05;;;11.43;;
33094;SDS011;19459;53.044;8.910;2023-08-31T06:36:43;23.60;;;11.57;;
33094;SDS011;19459;53.044;8.910;2023-08-31T06:39:09;18.40;;;11.30;;
33094;SDS011;19459;53.044;8.910;2023-08-31T06:41:35;22.90;;;12.07;;
33094;SDS011;19459;53.044;8.910;2023-08-31T06:44:01;17.52;;;11.05;;
33094;SDS011;19459;53.044;8.910;2023-08-31T06:46:29;16.85;;;10.82;;
33094;SDS011;19459;53.044;8.910;2023-08-31T06:48:58;20.77;;;11.38;;
33094;SDS011;19459;53.044;8.910;2023-08-31T06:51:25;16.63;;;10.48;;
33094;SDS011;19459;53.044;8.910;2023-08-31T06:53:50;16.10;;;9.93;;
33094;SDS011;19459;53.044;8.910;2023-08-31T06:56:16;14.90;;;9.60;;
33094;SDS011;19459;53.044;8.910;2023-08-31T06:58:42;17.88;;;10.43;;
33094;SDS011;19459;53.044;8.910;2023-08-31T07:01:08;15.45;;;9.50;;
33094;SDS011;19459;53.044;8.910;2023-08-31T07:03:34;14.88;;;9.10;;
33094;SDS011;19459;53.044;8.910;2023-08-31T07:06:00;23.92;;;10.50;;
33094;SDS011;19459;53.044;8.910;2023-08-31T07:08:25;20.70;;;10.68;;
33094;SDS011;19459;53.044;8.910;2023-08-31T07:10:51;14.30;;;9.80;;
33094;SDS011;19459;53.044;8.910;2023-08-31T07:13:17;18.42;;;10.88;;
33094;SDS011;19459;53.044;8.910;2023-08-31T07:15:43;18.88;;;10.85;;
33094;SDS011;19459;53.044;8.910;2023-08-31T07:18:09;17.23;;;10.52;;
33094;SDS011;19459;53.044;8.910;2023-08-31T07:20:34;19.23;;;11.82;;
33094;SDS011;19459;53.044;8.910;2023-08-31T07:23:00;16.50;;;12.00;;
33094;SDS011;19459;53.044;8.910;2023-08-31T07:25:26;19.20;;;12.00;;
33094;SDS011;19459;53.044;8.910;2023-08-31T07:27:53;18.08;;;11.57;;
33094;SDS011;19459;53.044;8.910;2023-08-31T07:30:18;22.92;;;11.30;;
33094;SDS011;19459;53.044;8.910;2023-08-31T07:32:44;18.05;;;12.85;;
33094;SDS011;19459;53.044;8.910;2023-08-31T07:35:10;20.40;;;13.95;;
33094;SDS011;19459;53.044;8.910;2023-08-31T07:37:36;20.98;;;13.00;;
33094;SDS011;19459;53.044;8.910;2023-08-31T07:40:02;18.58;;;12.90;;
33094;SDS011;19459;53.044;8.910;2023-08-31T07:42:33;18.80;;;12.30;;
33094;SDS011;19459;53.044;8.910;2023-08-31T07:45:00;20.38;;;13.40;;
33094;SDS011;19459;53.044;8.910;2023-08-31T07:47:25;19.08;;;12.75;;
33094;SDS011;19459;53.044;8.910;2023-08-31T07:49:51;12.75;;;11.38;;
33094;SDS011;19459;53.044;8.910;2023-08-31T07:52:17;18.23;;;12.60;;
33094;SDS011;19459;53.044;8.910;2023-08-31T07:54:42;16.40;;;12.45;;
33094;SDS011;19459;53.044;8.910;2023-08-31T07:57:08;23.13;;;13.80;;
33094;SDS011;19459;53.044;8.910;2023-08-31T07:59:34;21.58;;;13.80;;
33094;SDS011;19459;53.044;8.910;2023-08-31T08:02:00;20.33;;;13.32;;
33094;SDS011;19459;53.044;8.910;2023-08-31T08:04:25;18.85;;;14.88;;
33094;SDS011;19459;53.044;8.910;2023-08-31T08:06:52;19.25;;;14.10;;
33094;SDS011;19459;53.044;8.910;2023-08-31T08:09:18;23.65;;;15.60;;
33094;SDS011;19459;53.044;8.910;2023-08-31T08:11:44;22.23;;;16.08;;
33094;SDS011;19459;53.044;8.910;2023-08-31T08:14:10;18.92;;;14.98;;
33094;SDS011;19459;53.044;8.910;2023-08-31T08:16:35;21.00;;;15.48;;
33094;SDS011;19459;53.044;8.910;2023-08-31T08:19:01;23.17;;;15.30;;
33094;SDS011;19459;53.044;8.910;2023-08-31T08:21:27;18.45;;;15.07;;
33094;SDS011;19459;53.044;8.910;2023-08-31T08:23:53;20.92;;;13.93;;
33094;SDS011;19459;53.044;8.910;2023-08-31T08:26:19;18.60;;;14.90;;
33094;SDS011;19459;53.044;8.910;2023-08-31T08:28:44;20.25;;;14.07;;
33094;SDS011;19459;53.044;8.910;2023-08-31T08:31:11;19.33;;;13.63;;
33094;SDS011;19459;53.044;8.910;2023-08-31T08:33:39;20.25;;;15.15;;
33094;SDS011;19459;53.044;8.910;2023-08-31T08:36:05;20.08;;;14.27;;
33094;SDS011;19459;53.044;8.910;2023-08-31T08:38:31;21.67;;;14.10;;
33094;SDS011;19459;53.044;8.910;2023-08-31T08:40:57;20.52;;;14.07;;
33094;SDS011;19459;53.044;8.910;2023-08-31T08:43:26;20.52;;;15.18;;
33094;SDS011;19459;53.044;8.910;2023-08-31T08:45:52;22.05;;;14.05;;
33094;SDS011;19459;53.044;8.910;2023-08-31T08:48:20;21.63;;;15.93;;
33094;SDS011;19459;53.044;8.910;2023-08-31T08:50:46;21.08;;;14.88;;
33094;SDS011;19459;53.044;8.910;2023-08-31T08:53:12;19.20;;;13.50;;
33094;SDS011;19459;53.044;8.910;2023-08-31T08:55:40;20.95;;;13.80;;
33094;SDS011;19459;53.044;8.910;2023-08-31T08:58:06;23.63;;;13.70;;
33094;SDS011;19459;53.044;8.910;2023-08-31T09:00:32;21.70;;;14.50;;
33094;SDS011;19459;53.044;8.910;2023-08-31T09:02:59;22.33;;;14.98;;
33094;SDS011;19459;53.044;8.910;2023-08-31T09:05:30;22.63;;;14.05;;
33094;SDS011;19459;53.044;8.910;2023-08-31T09:08:03;19.58;;;13.98;;
33094;SDS011;19459;53.044;8.910;2023-08-31T09:10:37;16.92;;;13.00;;
33094;SDS011;19459;53.044;8.910;2023-08-31T09:13:14;20.60;;;14.45;;
33094;SDS011;19459;53.044;8.910;2023-08-31T09:15:47;21.13;;;13.43;;
33094;SDS011;19459;53.044;8.910;2023-08-31T09:18:24;20.77;;;13.77;;
33094;SDS011;19459;53.044;8.910;2023-08-31T09:20:56;16.88;;;12.95;;
33094;SDS011;19459;53.044;8.910;2023-08-31T09:23:22;18.60;;;12.88;;
33094;SDS011;19459;53.044;8.910;2023-08-31T09:25:50;16.33;;;11.88;;
33094;SDS011;19459;53.044;8.910;2023-08-31T09:28:22;15.48;;;11.27;;
33094;SDS011;19459;53.044;8.910;2023-08-31T09:31:06;19.20;;;11.90;;
33094;SDS011;19459;53.044;8.910;2023-08-31T09:33:34;20.52;;;11.90;;
33094;SDS011;19459;53.044;8.910;2023-08-31T09:36:05;21.73;;;12.70;;
33094;SDS011;19459;53.044;8.910;2023-08-31T09:38:33;19.90;;;11.57;;
33094;SDS011;19459;53.044;8.910;2023-08-31T09:41:10;14.77;;;11.38;;
33094;SDS011;19459;53.044;8.910;2023-08-31T09:43:39;15.98;;;10.32;;
33094;SDS011;19459;53.044;8.910;2023-08-31T09:46:04;14.70;;;11.05;;
33094;SDS011;19459;53.044;8.910;2023-08-31T09:48:31;11.05;;;9.48;;
33094;SDS011;19459;53.044;8.910;2023-08-31T09:50:57;12.65;;;7.68;;
33094;SDS011;19459;53.044;8.910;2023-08-31T09:53:26;17.95;;;8.13;;
33094;SDS011;19459;53.044;8.910;2023-08-31T09:55:55;11.82;;;6.85;;
33094;SDS011;19459;53.044;8.910;2023-08-31T09:58:22;7.35;;;5.93;;
33094;SDS011;19459;53.044;8.910;2023-08-31T10:00:49;9.50;;;6.32;;
33094;SDS011;19459;53.044;8.910;2023-08-31T10:03:16;5.65;;;4.22;;
33094;SDS011;19459;53.044;8.910;2023-08-31T10:05:42;9.38;;;4.88;;
33094;SDS011;19459;53.044;8.910;2023-08-31T10:08:11;5.95;;;3.03;;
33094;SDS011;19459;53.044;8.910;2023-08-31T10:10:37;9.95;;;4.15;;
33094;SDS011;19459;53.044;8.910;2023-08-31T10:13:04;3.50;;;2.35;;
33094;SDS011;19459;53.044;8.910;2023-08-31T10:15:31;4.75;;;2.33;;
33094;SDS011;19459;53.044;8.910;2023-08-31T10:17:59;9.73;;;2.50;;
33094;SDS011;19459;53.044;8.910;2023-08-31T10:20:26;7.18;;;1.80;;
33094;SDS011;19459;53.044;8.910;2023-08-31T10:22:59;10.73;;;1.80;;
33094;SDS011;19459;53.044;8.910;2023-08-31T10:28:18;10.70;;;1.80;;
33094;SDS011;19459;53.044;8.910;2023-08-31T10:31:06;3.20;;;1.85;;
33094;SDS011;19459;53.044;8.910;2023-08-31T10:33:34;2.72;;;1.48;;
33094;SDS011;19459;53.044;8.910;2023-08-31T10:36:12;2.17;;;1.10;;
33094;SDS011;19459;53.044;8.910;2023-08-31T10:38:41;3.17;;;1.40;;
33094;SDS011;19459;53.044;8.910;2023-08-31T10:43:49;7.55;;;2.45;;
33094;SDS011;19459;53.044;8.910;2023-08-31T10:46:27;4.72;;;1.23;;
33094;SDS011;19459;53.044;8.910;2023-08-31T10:49:06;2.92;;;1.17;;
33094;SDS011;19459;53.044;8.910;2023-08-31T10:51:40;6.15;;;0.98;;
33094;SDS011;19459;53.044;8.910;2023-08-31T10:54:49;3.25;;;0.90;;
33094;SDS011;19459;53.044;8.910;2023-08-31T10:57:28;1.25;;;0.80;;
33094;SDS011;19459;53.044;8.910;2023-08-31T10:59:58;3.10;;;0.88;;
33094;SDS011;19459;53.044;8.910;2023-08-31T11:07:36;3.15;;;0.93;;
33094;SDS011;19459;53.044;8.910;2023-08-31T11:10:08;2.45;;;1.00;;
33094;SDS011;19459;53.044;8.910;2023-08-31T11:12:45;7.93;;;1.35;;
33094;SDS011;19459;53.044;8.910;2023-08-31T11:15:14;3.80;;;1.33;;
33094;SDS011;19459;53.044;8.910;2023-08-31T11:17:42;4.22;;;1.63;;
33094;SDS011;19459;53.044;8.910;2023-08-31T11:20:12;3.47;;;1.15;;
33094;SDS011;19459;53.044;8.910;2023-08-31T11:22:41;5.32;;;1.70;;
33094;SDS011;19459;53.044;8.910;2023-08-31T11:25:14;3.33;;;0.90;;
33094;SDS011;19459;53.044;8.910;2023-08-31T11:27:42;6.28;;;1.00;;
33094;SDS011;19459;53.044;8.910;2023-08-31T11:30:18;2.67;;;1.10;;
33094;SDS011;19459;53.044;8.910;2023-08-31T11:32:49;4.07;;;1.10;;
33094;SDS011;19459;53.044;8.910;2023-08-31T11:35:18;11.32;;;1.90;;
33094;SDS011;19459;53.044;8.910;2023-08-31T11:37:49;6.63;;;0.70;;
33094;SDS011;19459;53.044;8.910;2023-08-31T11:40:16;2.38;;;0.85;;
33094;SDS011;19459;53.044;8.910;2023-08-31T11:42:42;2.97;;;0.93;;
33094;SDS011;19459;53.044;8.910;2023-08-31T11:45:09;3.97;;;1.08;;
33094;SDS011;19459;53.044;8.910;2023-08-31T11:47:37;2.00;;;0.82;;
33094;SDS011;19459;53.044;8.910;2023-08-31T11:50:04;2.95;;;0.82;;
33094;SDS011;19459;53.044;8.910;2023-08-31T11:52:32;1.73;;;1.10;;
33094;SDS011;19459;53.044;8.910;2023-08-31T11:54:58;3.95;;;1.10;;
33094;SDS011;19459;53.044;8.910;2023-08-31T11:57:25;4.20;;;1.50;;
33094;SDS011;19459;53.044;8.910;2023-08-31T11:59:52;6.30;;;1.33;;
33094;SDS011;19459;53.044;8.910;2023-08-31T12:02:18;3.55;;;1.05;;
33094;SDS011;19459;53.044;8.910;2023-08-31T12:04:45;2.92;;;1.00;;
33094;SDS011;19459;53.044;8.910;2023-08-31T12:07:15;6.90;;;1.35;;
33094;SDS011;19459;53.044;8.910;2023-08-31T12:09:43;4.75;;;1.20;;
33094;SDS011;19459;53.044;8.910;2023-08-31T12:12:15;2.65;;;1.10;;
33094;SDS011;19459;53.044;8.910;2023-08-31T12:14:45;3.63;;;1.10;;
33094;SDS011;19459;53.044;8.910;2023-08-31T12:17:11;4.40;;;1.52;;
33094;SDS011;19459;53.044;8.910;2023-08-31T12:19:37;5.78;;;1.88;;
33094;SDS011;19459;53.044;8.910;2023-08-31T12:22:06;7.30;;;1.45;;
33094;SDS011;19459;53.044;8.910;2023-08-31T12:24:43;3.13;;;1.05;;
33094;SDS011;19459;53.044;8.910;2023-08-31T12:27:15;0.82;;;0.73;;
33094;SDS011;19459;53.044;8.910;2023-08-31T12:29:41;4.32;;;1.60;;
33094;SDS011;19459;53.044;8.910;2023-08-31T12:32:06;4.32;;;0.90;;
33094;SDS011;19459;53.044;8.910;2023-08-31T12:34:32;2.63;;;1.17;;
33094;SDS011;19459;53.044;8.910;2023-08-31T12:36:58;1.95;;;0.90;;
33094;SDS011;19459;53.044;8.910;2023-08-31T12:39:26;1.70;;;0.85;;
33094;SDS011;19459;53.044;8.910;2023-08-31T12:41:52;2.38;;;1.02;;
33094;SDS011;19459;53.044;8.910;2023-08-31T12:44:18;2.08;;;1.20;;
33094;SDS011;19459;53.044;8.910;2023-08-31T12:46:43;3.67;;;1.02;;
33094;SDS011;19459;53.044;8.910;2023-08-31T12:49:09;4.00;;;1.33;;
33094;SDS011;19459;53.044;8.910;2023-08-31T12:51:35;5.88;;;1.85;;
33094;SDS011;19459;53.044;8.910;2023-08-31T12:54:01;8.43;;;1.67;;
33094;SDS011;19459;53.044;8.910;2023-08-31T12:56:28;8.93;;;1.55;;
33094;SDS011;19459;53.044;8.910;2023-08-31T12:58:54;2.78;;;1.40;;
33094;SDS011;19459;53.044;8.910;2023-08-31T13:01:22;4.28;;;1.40;;
33094;SDS011;19459;53.044;8.910;2023-08-31T13:03:51;4.10;;;1.17;;
33094;SDS011;19459;53.044;8.910;2023-08-31T13:06:17;6.15;;;1.38;;
33094;SDS011;19459;53.044;8.910;2023-08-31T13:08:44;4.13;;;1.67;;
33094;SDS011;19459;53.044;8.910;2023-08-31T13:11:10;3.30;;;1.02;;
33094;SDS011;19459;53.044;8.910;2023-08-31T13:13:37;1.95;;;1.00;;
33094;SDS011;19459;53.044;8.910;2023-08-31T13:16:03;2.75;;;1.35;;
33094;SDS011;19459;53.044;8.910;2023-08-31T13:18:29;1.95;;;1.17;;
33094;SDS011;19459;53.044;8.910;2023-08-31T13:20:55;4.03;;;1.00;;
33094;SDS011;19459;53.044;8.910;2023-08-31T13:23:21;3.58;;;1.30;;
33094;SDS011;19459;53.044;8.910;2023-08-31T13:25:48;2.08;;;0.88;;
33094;SDS011;19459;53.044;8.910;2023-08-31T13:28:15;4.95;;;1.52;;
33094;SDS011;19459;53.044;8.910;2023-08-31T13:30:41;6.90;;;1.73;;
33094;SDS011;19459;53.044;8.910;2023-08-31T13:33:07;3.50;;;1.10;;
33094;SDS011;19459;53.044;8.910;2023-08-31T13:35:34;2.30;;;1.05;;
33094;SDS011;19459;53.044;8.910;2023-08-31T13:38:01;3.33;;;1.30;;
33094;SDS011;19459;53.044;8.910;2023-08-31T13:40:27;1.63;;;0.90;;
33094;SDS011;19459;53.044;8.910;2023-08-31T13:42:55;3.30;;;1.17;;
33094;SDS011;19459;53.044;8.910;2023-08-31T13:45:26;2.38;;;1.52;;
33094;SDS011;19459;53.044;8.910;2023-08-31T13:47:52;2.60;;;1.25;;
33094;SDS011;19459;53.044;8.910;2023-08-31T13:50:18;3.75;;;1.10;;
33094;SDS011;19459;53.044;8.910;2023-08-31T13:52:44;3.83;;;1.52;;
33094;SDS011;19459;53.044;8.910;2023-08-31T13:55:10;3.72;;;1.10;;
33094;SDS011;19459;53.044;8.910;2023-08-31T13:57:37;6.38;;;1.50;;
33094;SDS011;19459;53.044;8.910;2023-08-31T14:00:06;4.35;;;1.50;;
33094;SDS011;19459;53.044;8.910;2023-08-31T14:02:36;1.75;;;1.00;;
33094;SDS011;19459;53.044;8.910;2023-08-31T14:05:03;4.18;;;1.45;;
33094;SDS011;19459;53.044;8.910;2023-08-31T14:07:33;2.05;;;1.13;;
33094;SDS011;19459;53.044;8.910;2023-08-31T14:09:59;4.93;;;1.00;;
33094;SDS011;19459;53.044;8.910;2023-08-31T14:12:24;4.00;;;1.42;;
33094;SDS011;19459;53.044;8.910;2023-08-31T14:14:51;4.97;;;1.95;;
33094;SDS011;19459;53.044;8.910;2023-08-31T14:17:17;6.65;;;2.08;;
33094;SDS011;19459;53.044;8.910;2023-08-31T14:19:44;4.35;;;1.90;;
33094;SDS011;19459;53.044;8.910;2023-08-31T14:22:10;6.20;;;1.88;;
33094;SDS011;19459;53.044;8.910;2023-08-31T14:24:36;7.22;;;1.60;;
33094;SDS011;19459;53.044;8.910;2023-08-31T14:27:02;4.38;;;1.60;;
33094;SDS011;19459;53.044;8.910;2023-08-31T14:29:29;2.90;;;1.73;;
33094;SDS011;19459;53.044;8.910;2023-08-31T14:31:59;2.00;;;1.48;;
33094;SDS011;19459;53.044;8.910;2023-08-31T14:34:26;5.45;;;2.47;;
33094;SDS011;19459;53.044;8.910;2023-08-31T14:36:51;7.38;;;2.00;;
33094;SDS011;19459;53.044;8.910;2023-08-31T14:39:19;3.83;;;1.60;;
33094;SDS011;19459;53.044;8.910;2023-08-31T14:41:44;3.20;;;1.27;;
33094;SDS011;19459;53.044;8.910;2023-08-31T14:44:10;2.20;;;1.15;;
33094;SDS011;19459;53.044;8.910;2023-08-31T14:46:36;1.38;;;0.70;;
33094;SDS011;19459;53.044;8.910;2023-08-31T14:49:01;1.05;;;0.90;;
33094;SDS011;19459;53.044;8.910;2023-08-31T14:51:29;1.40;;;0.80;;
33094;SDS011;19459;53.044;8.910;2023-08-31T14:53:54;3.10;;;0.70;;
33094;SDS011;19459;53.044;8.910;2023-08-31T14:56:20;4.50;;;0.73;;
33094;SDS011;19459;53.044;8.910;2023-08-31T14:58:46;1.45;;;0.68;;
33094;SDS011;19459;53.044;8.910;2023-08-31T15:01:12;1.40;;;0.85;;